createdAt,value
2023-03-29T00:00:16.784Z,66.67
2023-03-29T00:04:02.664Z,66.71
2023-03-29T00:07:27.160Z,66.97
2023-03-29T00:10:52.038Z,66.50
2023-03-29T00:14:15.985Z,66.12
2023-03-29T00:17:40.180Z,66.26
2023-03-29T00:21:04.477Z,66.12
2023-03-29T00:24:28.728Z,66.01
2023-03-29T00:27:53.355Z,64.87
2023-03-29T00:31:19.296Z,65.29
2023-03-29T00:34:46.201Z,65.23
2023-03-29T00:38:10.216Z,65.03
2023-03-29T00:41:34.268Z,64.52
2023-03-29T00:45:07.568Z,64.07
2023-03-29T00:48:32.976Z,63.32
2023-03-29T00:51:57.292Z,63.82
2023-03-29T00:55:24.903Z,63.22
2023-03-29T00:59:00.922Z,62.92
2023-03-29T01:02:28.717Z,62.22
2023-03-29T01:06:00.456Z,61.75
2023-03-29T01:09:29.938Z,62.01
2023-03-29T01:13:04.985Z,60.56
2023-03-29T01:16:33.080Z,60.30
2023-03-29T01:20:10.737Z,60.15
2023-03-29T01:23:51.162Z,60.38
2023-03-29T01:27:54.543Z,60.34
2023-03-29T01:31:25.909Z,59.95
2023-03-29T01:35:04.829Z,59.80
2023-03-29T01:38:32.889Z,59.51
2023-03-29T01:42:15.178Z,59.43
2023-03-29T01:46:06.146Z,59.92
2023-03-29T01:49:40.549Z,60.33
2023-03-29T01:53:11.337Z,60.54
2023-03-29T01:56:41.322Z,60.89
2023-03-29T02:00:10.583Z,61.57
2023-03-29T02:03:42.516Z,62.08
2023-03-29T02:07:09.752Z,62.19
2023-03-29T02:10:35.178Z,63.20
2023-03-29T02:14:00.841Z,63.97
2023-03-29T02:17:27.845Z,63.47
2023-03-29T02:20:54.063Z,63.35
2023-03-29T02:24:21.054Z,63.37
2023-03-29T02:27:46.236Z,63.27
2023-03-29T02:31:26.235Z,63.04
2023-03-29T02:35:13.150Z,62.98
2023-03-29T02:38:39.166Z,63.06
2023-03-29T02:42:06.242Z,63.03
2023-03-29T02:45:31.997Z,63.18
2023-03-29T02:48:58.095Z,63.18
2023-03-29T02:52:29.422Z,63.32
2023-03-29T02:55:54.011Z,63.54
2023-03-29T02:59:20.801Z,63.66
2023-03-29T03:02:44.678Z,63.74
2023-03-29T03:06:09.163Z,63.83
2023-03-29T03:09:33.017Z,64.09
2023-03-29T03:12:57.000Z,64.13
2023-03-29T03:16:22.098Z,64.15
2023-03-29T03:19:45.955Z,64.26
2023-03-29T03:23:10.778Z,64.33
2023-03-29T03:26:36.127Z,64.48
2023-03-29T03:30:01.181Z,64.66
2023-03-29T03:33:42.992Z,64.72
2023-03-29T03:37:25.599Z,64.83
2023-03-29T03:40:56.952Z,64.94
2023-03-29T03:44:21.622Z,64.99
2023-03-29T03:47:54.497Z,64.77
2023-03-29T03:51:30.075Z,65.02
2023-03-29T03:54:54.352Z,65.05
2023-03-29T03:58:37.930Z,64.89
2023-03-29T04:02:03.182Z,64.89
2023-03-29T04:05:27.417Z,64.92
2023-03-29T04:08:52.318Z,64.88
2023-03-29T04:12:29.689Z,64.93
2023-03-29T04:15:54.511Z,64.87
2023-03-29T04:19:18.501Z,65.03
2023-03-29T04:22:43.692Z,65.07
2023-03-29T04:26:07.956Z,65.08
2023-03-29T04:29:44.965Z,64.84
2023-03-29T04:33:17.651Z,64.99
2023-03-29T04:36:45.454Z,65.12
2023-03-29T04:40:15.176Z,64.99
2023-03-29T04:44:00.661Z,64.60
2023-03-29T04:47:29.708Z,64.35
2023-03-29T04:50:59.877Z,63.94
2023-03-29T04:54:24.101Z,63.82
2023-03-29T04:58:06.939Z,63.44
2023-03-29T05:01:36.148Z,63.33
2023-03-29T05:05:00.189Z,63.06
2023-03-29T05:08:24.486Z,62.78
2023-03-29T05:12:05.452Z,62.70
2023-03-29T05:15:41.149Z,62.37
2023-03-29T05:19:05.688Z,62.12
2023-03-29T05:22:31.940Z,61.86
2023-03-29T05:25:55.990Z,61.75
2023-03-29T05:29:20.240Z,61.37
2023-03-29T05:32:49.456Z,61.49
2023-03-29T05:36:18.954Z,60.96
2023-03-29T05:39:49.124Z,61.05
2023-03-29T05:43:14.436Z,61.25
2023-03-29T05:46:38.560Z,61.22
2023-03-29T05:50:04.891Z,61.41
2023-03-29T05:53:29.377Z,61.25
2023-03-29T05:56:53.497Z,61.82
2023-03-29T06:00:23.869Z,61.44
2023-03-29T06:03:53.691Z,60.96
2023-03-29T06:07:19.853Z,61.21
2023-03-29T06:11:02.466Z,61.61
2023-03-29T06:14:51.006Z,61.77
2023-03-29T06:18:19.059Z,62.09
2023-03-29T06:21:43.463Z,61.89
2023-03-29T06:25:12.500Z,62.10
2023-03-29T06:28:37.599Z,61.98
2023-03-29T06:32:04.676Z,61.85
2023-03-29T06:35:49.523Z,61.40
2023-03-29T06:39:16.752Z,61.31
2023-03-29T06:43:16.307Z,60.69
2023-03-29T06:46:50.018Z,61.49
2023-03-29T06:50:18.136Z,61.43
2023-03-29T06:53:50.087Z,61.35
2023-03-29T06:57:14.220Z,61.63
2023-03-29T07:00:39.520Z,61.29
2023-03-29T07:04:19.199Z,61.20
2023-03-29T07:08:11.767Z,61.16
2023-03-29T07:11:46.994Z,60.95
2023-03-29T07:15:16.894Z,60.48
2023-03-29T07:19:09.685Z,60.87
2023-03-29T07:22:48.302Z,61.22
2023-03-29T07:26:12.444Z,61.45
2023-03-29T07:29:37.881Z,59.26
2023-03-29T07:33:02.172Z,58.26
2023-03-29T07:36:43.896Z,57.46
2023-03-29T07:40:12.538Z,58.88
2023-03-29T07:43:45.263Z,59.44
2023-03-29T07:47:09.671Z,59.70
2023-03-29T07:50:34.462Z,59.45
2023-03-29T07:54:00.049Z,58.23
2023-03-29T07:57:47.608Z,58.58
2023-03-29T08:01:18.909Z,58.16
2023-03-29T08:05:01.742Z,57.50
2023-03-29T08:08:49.430Z,58.37
2023-03-29T08:12:14.846Z,58.16
2023-03-29T08:15:43.111Z,57.32
2023-03-29T08:19:14.751Z,57.51
2023-03-29T08:22:48.899Z,56.51
2023-03-29T08:26:31.530Z,55.23
2023-03-29T08:29:55.920Z,55.90
2023-03-29T08:33:19.952Z,55.24
2023-03-29T08:36:48.597Z,53.99
2023-03-29T08:40:27.991Z,54.45
2023-03-29T08:44:36.472Z,53.36
2023-03-29T08:48:17.557Z,52.85
2023-03-29T08:51:48.289Z,51.78
2023-03-29T08:55:28.364Z,52.03
2023-03-29T08:59:26.961Z,52.31
2023-03-29T09:02:53.962Z,50.69
2023-03-29T09:06:21.666Z,50.93
2023-03-29T09:09:46.977Z,50.63
2023-03-29T09:13:34.204Z,49.44
2023-03-29T09:17:23.475Z,48.56
2023-03-29T09:21:01.419Z,47.38
2023-03-29T09:24:37.537Z,46.35
2023-03-29T09:28:20.100Z,47.71
2023-03-29T09:31:49.495Z,46.72
2023-03-29T09:35:18.830Z,44.32
2023-03-29T09:38:47.201Z,43.09
2023-03-29T09:42:15.653Z,44.58
2023-03-29T09:45:42.149Z,42.58
2023-03-29T09:49:11.584Z,41.74
2023-03-29T09:52:35.913Z,43.09
2023-03-29T09:56:08.515Z,43.63
2023-03-29T09:59:41.615Z,43.30
2023-03-29T10:03:07.974Z,43.23
2023-03-29T10:06:49.271Z,40.07
2023-03-29T10:10:24.818Z,41.42
2023-03-29T10:13:51.623Z,41.95
2023-03-29T10:17:21.938Z,40.66
2023-03-29T10:20:45.804Z,40.56
2023-03-29T10:24:10.650Z,42.09
2023-03-29T10:27:34.752Z,42.00
2023-03-29T10:31:02.072Z,40.84
2023-03-29T10:34:28.168Z,40.58
2023-03-29T10:37:54.527Z,41.59
2023-03-29T10:41:19.207Z,41.99
2023-03-29T10:44:43.512Z,41.85
2023-03-29T10:48:13.132Z,41.36
2023-03-29T10:51:37.727Z,41.07
2023-03-29T10:55:02.029Z,41.28
2023-03-29T10:59:10.732Z,40.05
2023-03-29T11:02:42.437Z,40.88
2023-03-29T11:06:12.328Z,40.76
2023-03-29T11:09:46.441Z,39.45
2023-03-29T11:13:31.719Z,39.02
2023-03-29T11:17:05.100Z,38.19
2023-03-29T11:20:59.122Z,37.05
2023-03-29T11:24:48.922Z,38.11
2023-03-29T11:28:28.719Z,37.61
2023-03-29T11:32:18.277Z,37.58
2023-03-29T11:35:56.494Z,35.62
2023-03-29T11:39:50.943Z,34.46
2023-03-29T11:43:29.056Z,33.55
2023-03-29T11:46:58.774Z,33.78
2023-03-29T11:50:44.254Z,33.91
2023-03-29T11:54:22.960Z,34.61
2023-03-29T11:58:13.995Z,32.46
2023-03-29T12:01:43.447Z,32.53
2023-03-29T12:05:26.021Z,32.19
2023-03-29T12:09:34.196Z,32.48
2023-03-29T12:13:05.857Z,32.64
2023-03-29T12:16:40.851Z,34.32
2023-03-29T12:20:07.175Z,33.70
2023-03-29T12:23:34.515Z,32.57
2023-03-29T12:27:24.113Z,32.11
2023-03-29T12:31:02.374Z,31.44
2023-03-29T12:34:39.025Z,30.97
2023-03-29T12:38:33.937Z,29.74
2023-03-29T12:42:20.448Z,30.73
2023-03-29T12:46:22.640Z,29.47
2023-03-29T12:49:47.403Z,30.90
2023-03-29T12:53:33.509Z,31.31
2023-03-29T12:57:01.566Z,30.95
2023-03-29T13:00:33.723Z,29.69
2023-03-29T13:04:00.833Z,32.04
2023-03-29T13:07:26.493Z,31.16
2023-03-29T13:10:56.372Z,31.02
2023-03-29T13:14:22.393Z,30.28
2023-03-29T13:17:53.035Z,29.94
2023-03-29T13:21:29.500Z,29.17
2023-03-29T13:25:18.078Z,28.34
2023-03-29T13:29:02.526Z,28.43
2023-03-29T13:33:02.063Z,26.47
2023-03-29T13:36:43.632Z,28.49
2023-03-29T13:40:33.091Z,28.27
2023-03-29T13:43:58.742Z,29.29
2023-03-29T13:47:43.104Z,28.00
2023-03-29T13:51:14.962Z,28.43
2023-03-29T13:54:58.285Z,25.69
2023-03-29T13:58:42.838Z,27.76
2023-03-29T14:02:07.872Z,29.47
2023-03-29T14:05:45.335Z,28.06
2023-03-29T14:09:10.799Z,29.36
2023-03-29T14:12:41.939Z,26.88
2023-03-29T14:16:11.239Z,26.89
2023-03-29T14:19:39.256Z,26.99
2023-03-29T14:23:10.931Z,25.26
2023-03-29T14:26:36.877Z,26.13
2023-03-29T14:30:01.197Z,26.84
2023-03-29T14:33:34.797Z,25.99
2023-03-29T14:36:58.890Z,25.19
2023-03-29T14:40:23.713Z,25.89
2023-03-29T14:43:48.976Z,27.45
2023-03-29T14:47:21.177Z,27.60
2023-03-29T14:50:46.892Z,28.06
2023-03-29T14:54:20.769Z,27.52
2023-03-29T14:57:45.066Z,27.13
2023-03-29T15:01:18.496Z,26.78
2023-03-29T15:04:42.663Z,25.64
2023-03-29T15:08:10.509Z,24.51
2023-03-29T15:11:35.236Z,25.83
2023-03-29T15:15:00.635Z,25.41
2023-03-29T15:18:28.371Z,25.62
2023-03-29T15:21:52.977Z,25.18
2023-03-29T15:25:18.853Z,24.52
2023-03-29T15:28:49.002Z,25.51
2023-03-29T15:32:33.666Z,24.58
2023-03-29T15:35:58.170Z,25.11
2023-03-29T15:39:22.514Z,26.65
2023-03-29T15:42:46.691Z,26.60
2023-03-29T15:46:14.066Z,26.75
2023-03-29T15:49:37.892Z,26.97
2023-03-29T15:53:14.267Z,27.97
2023-03-29T15:56:49.759Z,28.19
2023-03-29T16:00:15.001Z,28.47
2023-03-29T16:03:40.217Z,29.05
2023-03-29T16:07:12.311Z,29.22
2023-03-29T16:10:36.682Z,29.68
2023-03-29T16:14:01.031Z,29.97
2023-03-29T16:17:27.660Z,30.23
2023-03-29T16:20:51.906Z,30.38
2023-03-29T16:24:21.928Z,30.33
2023-03-29T16:27:47.229Z,30.73
2023-03-29T16:31:13.148Z,31.16
2023-03-29T16:34:38.164Z,31.54
2023-03-29T16:38:02.549Z,31.81
2023-03-29T16:41:27.365Z,32.22
2023-03-29T16:44:51.617Z,32.67
2023-03-29T16:48:19.744Z,32.86
2023-03-29T16:51:43.638Z,33.03
2023-03-29T16:55:09.209Z,33.25
2023-03-29T16:58:33.029Z,33.64
2023-03-29T17:01:57.364Z,33.78
2023-03-29T17:05:22.305Z,33.82
2023-03-29T17:08:46.247Z,33.95
2023-03-29T17:12:10.543Z,34.10
2023-03-29T17:15:37.356Z,34.23
2023-03-29T17:19:03.103Z,34.39
2023-03-29T17:22:29.279Z,34.56
2023-03-29T17:25:56.021Z,34.71
2023-03-29T17:29:20.229Z,34.89
2023-03-29T17:32:45.742Z,35.10
2023-03-29T17:36:10.134Z,35.32
2023-03-29T17:39:37.560Z,35.09
2023-03-29T17:43:02.024Z,35.66
2023-03-29T17:46:26.423Z,35.96
2023-03-29T17:49:51.249Z,36.24
2023-03-29T17:53:17.876Z,36.45
2023-03-29T17:56:41.795Z,36.53
2023-03-29T18:00:09.228Z,36.63
2023-03-29T18:03:34.243Z,36.76
2023-03-29T18:06:58.343Z,37.07
2023-03-29T18:10:22.805Z,37.32
2023-03-29T18:13:46.588Z,37.66
2023-03-29T18:17:13.171Z,37.84
2023-03-29T18:20:37.494Z,38.08
2023-03-29T18:24:01.403Z,38.32
2023-03-29T18:27:25.501Z,38.45
2023-03-29T18:30:52.413Z,38.50
2023-03-29T18:34:16.320Z,38.66
2023-03-29T18:37:40.450Z,38.81
2023-03-29T18:41:08.670Z,38.99
2023-03-29T18:44:36.483Z,39.04
2023-03-29T18:48:00.809Z,39.21
2023-03-29T18:51:25.987Z,39.46
2023-03-29T18:54:50.097Z,39.70
2023-03-29T18:58:18.307Z,39.75
2023-03-29T19:01:44.013Z,39.94
2023-03-29T19:05:08.976Z,40.10
2023-03-29T19:08:34.726Z,40.32
2023-03-29T19:12:06.219Z,40.63
2023-03-29T19:15:30.067Z,41.00
2023-03-29T19:18:54.844Z,41.11
2023-03-29T19:22:18.641Z,41.32
2023-03-29T19:25:43.501Z,41.41
2023-03-29T19:29:07.430Z,41.58
2023-03-29T19:32:33.192Z,41.85
2023-03-29T19:35:57.943Z,42.05
2023-03-29T19:39:22.415Z,42.49
2023-03-29T19:42:47.671Z,42.53
2023-03-29T19:46:15.604Z,42.91
2023-03-29T19:49:39.806Z,42.74
2023-03-29T19:53:03.736Z,42.89
2023-03-29T19:56:28.083Z,43.54
2023-03-29T19:59:54.184Z,43.85
2023-03-29T20:03:21.834Z,44.01
2023-03-29T20:06:46.245Z,44.12
2023-03-29T20:10:11.179Z,44.67
2023-03-29T20:13:38.794Z,44.60
2023-03-29T20:17:04.584Z,44.58
2023-03-29T20:20:30.018Z,44.56
2023-03-29T20:23:53.833Z,44.58
2023-03-29T20:27:18.126Z,44.81
2023-03-29T20:30:42.722Z,45.31
2023-03-29T20:34:06.542Z,45.39
2023-03-29T20:37:30.406Z,45.76
2023-03-29T20:40:55.467Z,45.55
2023-03-29T20:44:19.499Z,45.25
2023-03-29T20:47:50.534Z,45.31
2023-03-29T20:51:14.717Z,45.83
2023-03-29T20:54:39.000Z,46.05
2023-03-29T20:58:03.558Z,46.19
2023-03-29T21:01:31.291Z,46.33
2023-03-29T21:05:00.360Z,46.16
2023-03-29T21:08:24.159Z,46.42
2023-03-29T21:11:49.175Z,46.15
2023-03-29T21:15:14.604Z,46.07
2023-03-29T21:18:40.884Z,46.15
2023-03-29T21:22:05.296Z,46.16
2023-03-29T21:25:29.223Z,46.16
2023-03-29T21:28:53.360Z,46.15
2023-03-29T21:32:17.443Z,46.31
2023-03-29T21:35:41.432Z,46.41
2023-03-29T21:39:05.899Z,46.51
2023-03-29T21:42:29.897Z,46.68
2023-03-29T21:45:53.898Z,46.75
2023-03-29T21:49:17.754Z,46.96
2023-03-29T21:52:43.789Z,47.07
2023-03-29T21:56:08.877Z,47.12
2023-03-29T21:59:32.902Z,47.47
2023-03-29T22:02:57.187Z,47.42
2023-03-29T22:06:21.459Z,47.66
2023-03-29T22:09:46.605Z,48.19
2023-03-29T22:13:10.409Z,48.29
2023-03-29T22:16:37.206Z,48.25
2023-03-29T22:20:02.711Z,48.40
2023-03-29T22:23:26.627Z,48.75
2023-03-29T22:26:51.492Z,49.03
2023-03-29T22:30:16.601Z,48.75
2023-03-29T22:33:42.083Z,49.15
2023-03-29T22:37:06.579Z,49.29
2023-03-29T22:40:33.227Z,49.28
2023-03-29T22:43:59.351Z,49.40
2023-03-29T22:47:23.339Z,49.65
2023-03-29T22:50:48.162Z,49.59
2023-03-29T22:54:12.327Z,49.64
2023-03-29T22:57:36.430Z,49.93
2023-03-29T23:01:00.599Z,50.14
2023-03-29T23:04:24.520Z,49.94
2023-03-29T23:07:48.481Z,50.17
2023-03-29T23:11:12.494Z,50.23
2023-03-29T23:14:36.270Z,50.52
2023-03-29T23:18:00.467Z,50.84
2023-03-29T23:21:24.317Z,50.80
2023-03-29T23:24:48.327Z,50.75
2023-03-29T23:28:13.361Z,50.95
2023-03-29T23:31:37.901Z,51.09
2023-03-29T23:35:02.008Z,51.55
2023-03-29T23:38:26.294Z,52.46
2023-03-29T23:41:50.503Z,51.74
2023-03-29T23:45:18.426Z,51.64
2023-03-29T23:48:50.282Z,51.67
2023-03-29T23:52:14.160Z,51.65
2023-03-29T23:55:38.037Z,51.42
2023-03-29T23:59:01.915Z,51.84
